Time;durP1;ratioP1;P1;durP2;ratioP2;P2;SDS_P1;SDS_P2;PMS_P1;PMS_P2;Temp;Humidity;BMP_temperature;BMP_pressure;BME280_temperature;BME280_humidity;BME280_pressure;Samples;Min_cycle;Max_cycle;Signal;HPM_P1;HPM_P2
2022/12/20 00:00:46;;;;;;;5.88;5.05;;;8.30;99.90;;;;;;5058338;28;20033;-83
2022/12/20 00:03:12;;;;;;;6.45;5.13;;;8.30;99.90;;;;;;5047322;28;20046;-83
2022/12/20 00:05:39;;;;;;;5.60;4.80;;;8.20;99.90;;;;;;5053974;28;21056;-84
2022/12/20 00:08:06;;;;;;;7.03;4.78;;;8.20;99.90;;;;;;5040368;28;20044;-83
2022/12/20 00:10:35;;;;;;;6.50;4.85;;;8.20;99.90;;;;;;5062159;28;20076;-81
2022/12/20 00:13:01;;;;;;;7.57;4.50;;;8.10;99.90;;;;;;5060226;28;20056;-83
2022/12/20 00:15:26;;;;;;;7.57;5.38;;;8.10;99.90;;;;;;5058797;28;20414;-83
2022/12/20 00:17:52;;;;;;;8.05;5.28;;;8.20;99.90;;;;;;5065134;28;20049;-83
2022/12/20 00:20:17;;;;;;;8.50;5.10;;;8.20;99.90;;;;;;5054996;28;20110;-84
2022/12/20 00:22:44;;;;;;;6.10;4.53;;;8.30;99.90;;;;;;5066867;28;20141;-83
2022/12/20 00:25:10;;;;;;;6.55;4.93;;;8.30;99.90;;;;;;5064004;28;20052;-83
2022/12/20 00:27:36;;;;;;;8.02;4.97;;;8.30;99.90;;;;;;5065497;28;20079;-83
2022/12/20 00:30:02;;;;;;;5.90;4.65;;;9.10;99.90;;;;;;5046677;28;20082;-82
2022/12/20 00:32:27;;;;;;;6.93;5.03;;;8.40;99.90;;;;;;5044069;28;20052;-83
2022/12/20 00:34:53;;;;;;;13.98;5.88;;;8.50;99.90;;;;;;5050979;28;20033;-83
2022/12/20 00:37:19;;;;;;;6.57;5.05;;;8.50;99.90;;;;;;5065026;28;20041;-83
2022/12/20 00:39:45;;;;;;;5.93;4.85;;;8.50;99.90;;;;;;5053274;28;20044;-83
2022/12/20 00:42:11;;;;;;;6.32;4.80;;;8.60;99.90;;;;;;5060920;28;20406;-83
2022/12/20 00:44:36;;;;;;;6.45;4.47;;;8.60;99.90;;;;;;5063645;28;20048;-83
2022/12/20 00:47:02;;;;;;;7.05;4.55;;;8.60;99.90;;;;;;5066669;28;20055;-83
2022/12/20 00:49:28;;;;;;;7.32;4.53;;;8.70;99.90;;;;;;5066067;28;20040;-83
2022/12/20 00:51:53;;;;;;;6.85;4.63;;;8.70;99.90;;;;;;5069817;28;20040;-83
2022/12/20 00:54:19;;;;;;;5.18;4.18;;;8.70;99.90;;;;;;5066288;28;20041;-83
2022/12/20 00:56:44;;;;;;;6.20;4.50;;;8.70;99.90;;;;;;5059358;28;20060;-83
2022/12/20 00:59:10;;;;;;;5.10;4.30;;;8.70;99.90;;;;;;5048783;28;20048;-83
2022/12/20 01:01:35;;;;;;;4.78;3.92;;;8.70;99.90;;;;;;5075976;28;20049;-83
2022/12/20 01:04:01;;;;;;;4.68;4.25;;;8.70;99.90;;;;;;5043802;28;20040;-84
2022/12/20 01:06:29;;;;;;;5.10;4.18;;;8.70;99.90;;;;;;5066603;28;20051;-82
2022/12/20 01:08:55;;;;;;;4.35;3.92;;;8.70;99.90;;;;;;5040668;28;20049;-83
2022/12/20 01:11:29;;;;;;;5.15;4.40;;;8.70;99.90;;;;;;5067182;28;20040;-83
2022/12/20 01:13:57;;;;;;;4.55;4.15;;;8.70;99.90;;;;;;5068448;28;20525;-82
2022/12/20 01:16:29;;;;;;;5.55;4.18;;;8.60;99.90;;;;;;5060152;28;20041;-83
2022/12/20 01:18:55;;;;;;;4.40;3.67;;;8.60;99.90;;;;;;5065434;28;20063;-83
2022/12/20 01:21:23;;;;;;;7.10;4.35;;;8.70;99.90;;;;;;5069120;28;20406;-82
2022/12/20 01:23:49;;;;;;;6.03;4.18;;;8.60;99.90;;;;;;5068726;28;20044;-83
2022/12/20 01:26:16;;;;;;;5.43;4.45;;;8.60;99.90;;;;;;5049753;28;20075;-83
2022/12/20 01:28:44;;;;;;;4.03;3.55;;;8.60;99.90;;;;;;5047150;28;20514;-83
2022/12/20 01:31:14;;;;;;;6.45;4.22;;;8.60;99.90;;;;;;5065857;28;20099;-83
2022/12/20 01:33:40;;;;;;;4.85;4.28;;;8.60;99.90;;;;;;5067624;28;20406;-82
2022/12/20 01:36:10;;;;;;;5.38;4.10;;;8.60;99.90;;;;;;5049897;28;20049;-83
2022/12/20 01:38:35;;;;;;;5.40;4.03;;;8.10;99.90;;;;;;5062636;28;20800;-83
2022/12/20 01:41:02;;;;;;;6.43;4.22;;;8.60;99.90;;;;;;5050020;28;20049;-83
2022/12/20 01:43:47;;;;;;;6.70;4.00;;;8.60;99.90;;;;;;5055904;28;20116;-83
2022/12/20 01:46:13;;;;;;;6.05;4.10;;;8.50;99.90;;;;;;5053203;28;20052;-82
2022/12/20 01:48:39;;;;;;;5.15;4.60;;;8.60;99.90;;;;;;5048246;28;20057;-83
2022/12/20 01:51:05;;;;;;;4.55;4.13;;;8.60;99.90;;;;;;5058032;28;20094;-82
2022/12/20 01:53:31;;;;;;;4.97;4.10;;;8.50;99.90;;;;;;5066990;28;20048;-83
2022/12/20 01:56:02;;;;;;;5.57;3.90;;;8.50;99.90;;;;;;5066713;28;20048;-83
2022/12/20 01:58:27;;;;;;;5.30;3.90;;;8.60;99.90;;;;;;5065359;28;20072;-83
2022/12/20 02:00:53;;;;;;;6.50;3.97;;;8.60;99.90;;;;;;5068332;28;20044;-83
2022/12/20 02:03:18;;;;;;;6.10;3.70;;;8.60;99.90;;;;;;5047881;28;20136;-83
2022/12/20 02:05:45;;;;;;;5.70;3.72;;;8.70;99.90;;;;;;5059670;28;20051;-83
2022/12/20 02:08:14;;;;;;;5.47;4.30;;;8.60;99.90;;;;;;5053986;28;20047;-83
2022/12/20 02:10:59;;;;;;;5.95;3.95;;;8.70;99.90;;;;;;5065417;28;20084;-83
2022/12/20 02:13:54;;;;;;;5.50;3.65;;;8.70;99.90;;;;;;5066951;28;20087;-82
2022/12/20 02:16:26;;;;;;;6.18;3.85;;;8.70;99.90;;;;;;5059375;28;20044;-83
2022/12/20 02:19:00;;;;;;;5.90;3.90;;;8.70;99.90;;;;;;5061816;28;20041;-83
2022/12/20 02:22:07;;;;;;;4.57;3.85;;;8.70;99.90;;;;;;5059063;28;20048;-83
2022/12/20 02:24:50;;;;;;;5.32;4.07;;;8.70;99.90;;;;;;5064722;28;20083;-83
2022/12/20 02:27:29;;;;;;;;;;;8.70;99.90;;;;;;5069213;28;20360;-83
2022/12/20 02:30:05;;;;;;;5.63;3.90;;;8.70;99.90;;;;;;5065595;28;19920;-82
2022/12/20 02:32:41;;;;;;;4.80;3.67;;;8.90;99.90;;;;;;5043003;28;20036;-83
2022/12/20 02:35:09;;;;;;;4.78;3.85;;;8.80;99.90;;;;;;5041800;28;20050;-82
2022/12/20 02:37:35;;;;;;;6.28;4.00;;;8.90;99.90;;;;;;5062039;28;20121;-83
2022/12/20 02:40:03;;;;;;;6.05;4.05;;;8.90;99.90;;;;;;5047380;28;20433;-83
2022/12/20 02:42:30;;;;;;;4.30;3.58;;;9.00;99.90;;;;;;5030104;28;20052;-83
2022/12/20 02:45:15;;;;;;;5.03;3.90;;;8.80;99.90;;;;;;5055416;28;20058;-83
2022/12/20 02:47:49;;;;;;;4.60;4.20;;;8.80;99.90;;;;;;5058264;28;20063;-83
2022/12/20 02:50:22;;;;;;;4.20;3.65;;;8.80;99.90;;;;;;5057118;28;20037;-83
2022/12/20 02:52:49;;;;;;;4.82;4.07;;;8.80;99.90;;;;;;5060341;28;20044;-83
2022/12/20 02:55:15;;;;;;;5.50;4.05;;;8.80;99.90;;;;;;5051923;28;20032;-84
2022/12/20 02:58:02;;;;;;;5.20;3.90;;;8.80;99.90;;;;;;5065041;28;20075;-84
2022/12/20 03:00:33;;;;;;;6.20;4.18;;;8.80;99.90;;;;;;5059808;28;20049;-84
2022/12/20 03:05:46;;;;;;;7.53;3.85;;;8.80;99.90;;;;;;5053675;28;20045;-84
2022/12/20 03:08:11;;;;;;;5.57;4.40;;;8.80;99.90;;;;;;5030446;28;20041;-83
2022/12/20 03:10:37;;;;;;;6.40;4.80;;;8.80;99.90;;;;;;5063580;28;20052;-84
2022/12/20 03:13:03;;;;;;;6.75;4.53;;;8.80;99.90;;;;;;5060115;28;20486;-84
2022/12/20 03:15:28;;;;;;;5.22;4.57;;;8.80;99.90;;;;;;5064669;28;20056;-84
2022/12/20 03:17:54;;;;;;;5.07;4.32;;;8.70;99.90;;;;;;5066294;28;20079;-84
2022/12/20 03:20:22;;;;;;;8.00;4.55;;;8.80;99.90;;;;;;5066074;28;20504;-83
2022/12/20 03:22:47;;;;;;;5.10;4.60;;;8.70;99.90;;;;;;5066502;28;20123;-84
2022/12/20 03:25:13;;;;;;;5.40;4.50;;;8.70;99.90;;;;;;5057206;28;20123;-83
2022/12/20 03:27:39;;;;;;;7.43;4.60;;;8.70;99.90;;;;;;5045843;28;20099;-83
2022/12/20 03:30:05;;;;;;;5.82;4.07;;;8.70;99.90;;;;;;5061415;28;20076;-85
2022/12/20 03:32:31;;;;;;;6.18;4.40;;;8.60;99.90;;;;;;5051986;28;20040;-84
2022/12/20 03:34:57;;;;;;;5.47;4.50;;;8.60;99.90;;;;;;5064817;28;20493;-84
2022/12/20 03:37:23;;;;;;;7.57;4.65;;;8.60;99.90;;;;;;5055953;28;20045;-84
2022/12/20 03:39:49;;;;;;;5.65;4.45;;;8.60;99.90;;;;;;5044285;28;20052;-84
2022/12/20 03:42:14;;;;;;;5.30;4.32;;;8.60;99.90;;;;;;5060629;28;20383;-84
2022/12/20 03:44:40;;;;;;;5.88;4.53;;;8.60;99.90;;;;;;5045900;28;20127;-84
2022/12/20 03:47:05;;;;;;;6.43;4.80;;;9.10;99.90;;;;;;5062484;28;20170;-85
2022/12/20 03:49:31;;;;;;;6.50;4.63;;;8.70;99.90;;;;;;5048222;28;20070;-84
2022/12/20 03:51:57;;;;;;;6.43;4.57;;;8.70;99.90;;;;;;5065699;28;20040;-84
2022/12/20 03:54:22;;;;;;;6.78;4.25;;;8.60;99.90;;;;;;5064107;28;20056;-82
2022/12/20 03:56:48;;;;;;;4.70;4.30;;;8.60;99.90;;;;;;5049043;28;20045;-84
2022/12/20 03:59:14;;;;;;;5.28;4.60;;;9.00;99.90;;;;;;5036922;28;20495;-83
2022/12/20 04:01:40;;;;;;;5.50;4.45;;;8.70;99.90;;;;;;5065530;28;20053;-84
2022/12/20 04:04:13;;;;;;;6.10;4.80;;;8.70;99.90;;;;;;5063060;28;20044;-83
2022/12/20 04:06:39;;;;;;;5.90;4.55;;;9.20;99.90;;;;;;5062156;28;20045;-83
2022/12/20 04:09:05;;;;;;;5.15;4.57;;;8.70;99.90;;;;;;5060752;28;20056;-83
2022/12/20 04:11:33;;;;;;;6.10;4.93;;;8.70;99.90;;;;;;5055028;28;20105;-83
2022/12/20 04:13:58;;;;;;;7.55;4.90;;;8.70;99.90;;;;;;5053035;28;20098;-83
2022/12/20 04:16:26;;;;;;;5.75;4.75;;;8.70;99.90;;;;;;5047002;28;20079;-83
2022/12/20 04:18:52;;;;;;;6.80;4.82;;;8.80;99.90;;;;;;5069268;28;20048;-84
2022/12/20 04:21:23;;;;;;;7.13;5.07;;;8.80;99.90;;;;;;5058101;28;20044;-83
2022/12/20 04:23:49;;;;;;;5.50;4.53;;;8.80;99.90;;;;;;5049930;28;20115;-83
2022/12/20 04:26:15;;;;;;;6.78;4.63;;;8.70;99.90;;;;;;5068908;28;20546;-83
2022/12/20 04:28:41;;;;;;;8.60;4.75;;;8.80;99.90;;;;;;5040412;28;20102;-83
2022/12/20 04:31:06;;;;;;;7.70;4.75;;;8.80;99.90;;;;;;5069284;28;20064;-83
2022/12/20 04:33:32;;;;;;;6.70;4.55;;;8.80;99.90;;;;;;5053600;28;20131;-83
2022/12/20 04:35:58;;;;;;;7.70;4.90;;;8.70;99.90;;;;;;5064922;28;20098;-83
2022/12/20 04:38:24;;;;;;;5.97;4.72;;;9.20;99.90;;;;;;5050083;28;20041;-83
2022/12/20 04:40:51;;;;;;;8.38;4.97;;;8.70;99.90;;;;;;5069212;28;20055;-82
2022/12/20 04:43:18;;;;;;;6.38;5.07;;;9.10;99.90;;;;;;5065160;28;20406;-83
2022/12/20 04:45:45;;;;;;;5.60;4.70;;;8.70;99.90;;;;;;5066290;28;20211;-83
2022/12/20 04:48:11;;;;;;;5.25;4.43;;;8.80;99.90;;;;;;5049695;28;20047;-83
2022/12/20 04:50:36;;;;;;;7.35;5.22;;;8.80;99.90;;;;;;5068993;28;20815;-82
2022/12/20 04:55:46;;;;;;;5.53;4.70;;;8.80;99.90;;;;;;5067845;28;20056;-83
2022/12/20 04:58:12;;;;;;;5.82;4.32;;;8.80;99.90;;;;;;5066428;28;20423;-82
2022/12/20 05:00:37;;;;;;;6.68;5.00;;;8.90;99.90;;;;;;5057320;28;20037;-83
2022/12/20 05:03:03;;;;;;;5.70;4.63;;;8.90;99.90;;;;;;5049267;28;20057;-83
2022/12/20 05:05:29;;;;;;;5.18;4.38;;;8.90;99.90;;;;;;5058990;28;20080;-84
2022/12/20 05:07:55;;;;;;;6.65;4.80;;;9.00;99.90;;;;;;5064677;28;20041;-83
2022/12/20 05:10:20;;;;;;;6.00;4.63;;;9.00;99.90;;;;;;5068734;28;20465;-83
2022/12/20 05:12:46;;;;;;;5.45;4.70;;;9.00;99.90;;;;;;5061723;28;20075;-82
2022/12/20 05:15:13;;;;;;;6.32;4.40;;;9.10;99.90;;;;;;5058466;28;20037;-84
2022/12/20 05:17:38;;;;;;;6.18;4.70;;;9.10;99.90;;;;;;5065457;28;20139;-83
2022/12/20 05:20:06;;;;;;;6.10;4.38;;;9.10;99.90;;;;;;5067541;28;20164;-83
2022/12/20 05:28:00;;;;;;;4.57;3.78;;;9.20;99.90;;;;;;5060502;28;20060;-83
2022/12/20 05:30:26;;;;;;;6.53;4.22;;;9.20;99.90;;;;;;5082638;28;20048;-83
2022/12/20 05:32:52;;;;;;;5.72;4.78;;;9.20;99.90;;;;;;5067677;28;20380;-83
2022/12/20 05:35:17;;;;;;;7.70;4.25;;;9.20;99.90;;;;;;5050231;28;20044;-82
2022/12/20 05:37:46;;;;;;;5.90;4.13;;;9.20;99.90;;;;;;5050493;28;20387;-82
2022/12/20 05:40:11;;;;;;;4.38;3.92;;;9.20;99.90;;;;;;5064084;28;20116;-82
2022/12/20 05:42:37;;;;;;;6.22;4.07;;;9.30;99.90;;;;;;5048088;28;20076;-83
2022/12/20 05:45:04;;;;;;;5.38;4.30;;;9.30;99.90;;;;;;5049338;28;20215;-82
2022/12/20 05:47:32;;;;;;;5.78;4.35;;;9.20;99.90;;;;;;5054009;28;20044;-83
2022/12/20 05:49:59;;;;;;;5.90;3.90;;;9.30;99.90;;;;;;5068458;28;20044;-83
2022/12/20 05:52:27;;;;;;;5.28;3.55;;;9.30;99.90;;;;;;5046944;28;20057;-82
2022/12/20 05:54:53;;;;;;;7.32;4.57;;;9.30;99.90;;;;;;5061106;28;20045;-82
2022/12/20 05:57:18;;;;;;;4.88;3.78;;;9.30;99.90;;;;;;5067794;28;20052;-83
2022/12/20 05:59:44;;;;;;;5.30;3.90;;;9.30;99.90;;;;;;5054037;28;20052;-82
2022/12/20 06:02:10;;;;;;;6.35;3.88;;;9.20;99.90;;;;;;5038629;28;20054;-82
2022/12/20 06:04:37;;;;;;;6.50;4.13;;;9.30;99.90;;;;;;5062633;28;20058;-82
2022/12/20 06:07:04;;;;;;;6.97;3.55;;;9.20;99.90;;;;;;5059962;28;20040;-83
2022/12/20 06:09:30;;;;;;;6.60;4.00;;;9.20;99.90;;;;;;5063453;28;20049;-82
2022/12/20 06:11:57;;;;;;;4.03;3.38;;;9.20;99.90;;;;;;5056812;28;20048;-82
2022/12/20 06:14:22;;;;;;;6.60;4.07;;;9.30;99.90;;;;;;5056705;28;20056;-83
2022/12/20 06:16:48;;;;;;;4.95;3.88;;;9.30;99.90;;;;;;5052406;28;20056;-83
2022/12/20 06:19:14;;;;;;;4.30;3.70;;;9.30;99.90;;;;;;5058023;28;20086;-83
2022/12/20 06:21:39;;;;;;;4.22;3.80;;;9.40;99.90;;;;;;5049194;28;20068;-83
2022/12/20 06:24:05;;;;;;;4.88;3.67;;;9.30;99.90;;;;;;5064313;28;20075;-82
2022/12/20 06:26:35;;;;;;;5.22;4.15;;;9.50;99.90;;;;;;5067207;28;20391;-83
2022/12/20 06:29:02;;;;;;;5.55;4.30;;;9.50;99.90;;;;;;5062816;28;20094;-83
2022/12/20 06:31:27;;;;;;;5.00;4.18;;;9.50;99.90;;;;;;5062881;28;20048;-83
2022/12/20 06:33:53;;;;;;;5.78;4.22;;;9.60;99.90;;;;;;5063940;28;20044;-83
2022/12/20 06:36:19;;;;;;;4.97;4.18;;;9.60;99.90;;;;;;5057785;28;20068;-82
2022/12/20 06:38:44;;;;;;;5.88;3.83;;;9.60;99.90;;;;;;5073835;28;20163;-84
2022/12/20 06:41:10;;;;;;;5.00;4.45;;;9.60;99.90;;;;;;5057628;28;20052;-83
2022/12/20 06:43:36;;;;;;;6.95;4.30;;;9.60;99.90;;;;;;5066437;28;20040;-85
2022/12/20 06:46:01;;;;;;;5.85;4.10;;;9.80;99.90;;;;;;5049451;28;20029;-85
2022/12/20 06:48:27;;;;;;;6.90;4.40;;;9.50;99.90;;;;;;5063601;28;20056;-85
2022/12/20 06:50:52;;;;;;;5.72;4.82;;;9.50;99.90;;;;;;5060359;28;20037;-85
2022/12/20 06:53:18;;;;;;;7.78;5.47;;;9.50;99.90;;;;;;5065529;28;20143;-85
2022/12/20 06:55:46;;;;;;;7.85;5.18;;;9.50;99.90;;;;;;5066269;28;20043;-85
2022/12/20 06:58:12;;;;;;;7.43;5.65;;;9.40;99.90;;;;;;5066495;28;20502;-84
2022/12/20 07:00:37;;;;;;;7.93;5.75;;;9.50;99.90;;;;;;5066858;28;20049;-85
2022/12/20 07:03:03;;;;;;;8.40;5.25;;;9.50;99.90;;;;;;5068128;28;20354;-85
2022/12/20 07:05:29;;;;;;;6.10;4.90;;;9.60;99.90;;;;;;5067228;28;20110;-85
2022/12/20 07:07:54;;;;;;;6.50;4.85;;;9.50;99.90;;;;;;5047410;28;20058;-86
2022/12/20 07:10:20;;;;;;;7.68;5.35;;;9.50;99.90;;;;;;5048299;28;20518;-83
2022/12/20 07:12:45;;;;;;;6.38;5.57;;;9.50;99.90;;;;;;5046323;28;20736;-85
2022/12/20 07:15:11;;;;;;;9.75;5.53;;;9.50;99.90;;;;;;5046692;28;20442;-85
2022/12/20 07:17:38;;;;;;;8.27;5.60;;;9.50;99.90;;;;;;5046885;28;20131;-86
2022/12/20 07:20:04;;;;;;;9.27;6.95;;;9.40;99.90;;;;;;5046862;28;20130;-84
2022/12/20 07:22:29;;;;;;;7.07;6.13;;;9.40;99.90;;;;;;5059228;28;20044;-85
2022/12/20 07:24:55;;;;;;;11.98;8.90;;;9.40;99.90;;;;;;5042463;28;20050;-86
2022/12/20 07:27:20;;;;;;;11.07;7.50;;;9.40;99.90;;;;;;5006353;28;20058;-86
2022/12/20 07:29:46;;;;;;;6.25;5.50;;;9.50;99.90;;;;;;5015451;28;20060;-86
2022/12/20 07:32:13;;;;;;;6.55;5.60;;;9.40;99.90;;;;;;5025156;28;20084;-84
2022/12/20 07:34:38;;;;;;;6.43;5.43;;;9.40;99.90;;;;;;5024792;28;20111;-84
2022/12/20 07:37:05;;;;;;;10.65;7.32;;;9.40;99.90;;;;;;5016574;28;20046;-84
2022/12/20 07:39:30;;;;;;;8.38;7.53;;;9.40;99.90;;;;;;5026208;28;20046;-83
2022/12/20 07:41:57;;;;;;;10.05;8.48;;;9.50;99.90;;;;;;5028008;28;20059;-84
2022/12/20 07:44:23;;;;;;;7.93;6.90;;;9.40;99.90;;;;;;5025721;28;20037;-84
2022/12/20 07:46:48;;;;;;;7.65;6.40;;;9.50;99.90;;;;;;5031930;28;20044;-84
2022/12/20 07:49:14;;;;;;;9.77;7.47;;;9.50;99.90;;;;;;5030388;28;20061;-83
2022/12/20 07:51:54;;;;;;;7.30;6.47;;;9.50;99.90;;;;;;5030671;28;20057;-83
2022/12/20 07:54:45;;;;;;;8.52;5.60;;;9.50;99.90;;;;;;5031534;28;20056;-84
2022/12/20 07:57:22;;;;;;;7.78;5.93;;;9.40;99.90;;;;;;5031017;28;20678;-84
2022/12/20 07:59:52;;;;;;;6.18;5.57;;;9.40;99.90;;;;;;5013008;28;20061;-83
2022/12/20 08:02:26;;;;;;;7.15;5.60;;;9.40;99.90;;;;;;5011877;28;20116;-86
2022/12/20 08:04:53;;;;;;;9.05;6.30;;;9.40;99.90;;;;;;5025583;28;20104;-85
2022/12/20 08:07:19;;;;;;;8.05;5.65;;;9.40;99.90;;;;;;5025999;28;20075;-84
2022/12/20 08:09:45;;;;;;;7.50;5.93;;;9.40;99.90;;;;;;5015312;28;20062;-84
2022/12/20 08:12:14;;;;;;;5.97;5.22;;;9.40;99.90;;;;;;5010076;28;20045;-84
2022/12/20 08:14:40;;;;;;;6.45;4.60;;;9.50;99.90;;;;;;5011775;28;20053;-84
2022/12/20 08:17:05;;;;;;;4.57;4.15;;;9.50;99.90;;;;;;4994259;28;20042;-84
2022/12/20 08:19:31;;;;;;;6.47;4.72;;;9.50;99.90;;;;;;5026995;28;20473;-85
2022/12/20 08:21:56;;;;;;;4.72;4.32;;;9.60;99.90;;;;;;5046511;28;20042;-83
2022/12/20 08:24:22;;;;;;;5.80;4.25;;;9.60;99.90;;;;;;5017662;28;20798;-83
2022/12/20 08:26:47;;;;;;;4.50;4.10;;;9.60;99.90;;;;;;5016892;28;20415;-83
2022/12/20 08:29:13;;;;;;;5.20;4.10;;;9.50;99.90;;;;;;5013671;28;20050;-88
2022/12/20 08:31:43;;;;;;;5.53;3.80;;;9.50;99.90;;;;;;5029595;28;20562;-83
2022/12/20 08:34:09;;;;;;;6.65;4.43;;;9.60;99.90;;;;;;5029840;28;20506;-81
2022/12/20 08:36:34;;;;;;;6.22;4.60;;;9.60;99.90;;;;;;5031266;28;20057;-86
2022/12/20 08:39:04;;;;;;;4.28;3.88;;;9.60;99.90;;;;;;5029323;28;20048;-84
2022/12/20 08:41:30;;;;;;;5.18;4.68;;;9.70;99.90;;;;;;5022065;28;20060;-84
2022/12/20 08:43:56;;;;;;;7.43;4.57;;;9.60;99.90;;;;;;5010995;28;20041;-84
2022/12/20 08:46:21;;;;;;;6.07;4.47;;;9.60;99.90;;;;;;5009346;28;20041;-83
2022/12/20 08:48:47;;;;;;;7.25;4.38;;;9.60;99.90;;;;;;5023916;28;20049;-83
2022/12/20 08:51:13;;;;;;;7.15;4.32;;;9.60;99.90;;;;;;5028875;28;20045;-83
2022/12/20 08:53:39;;;;;;;6.55;4.55;;;9.60;99.90;;;;;;5009497;28;20057;-85
2022/12/20 08:56:07;;;;;;;6.60;4.40;;;9.60;99.90;;;;;;5014578;28;20049;-84
2022/12/20 08:58:34;;;;;;;5.97;4.53;;;9.60;99.90;;;;;;5029004;28;20495;-83
2022/12/20 09:01:00;;;;;;;5.68;4.05;;;9.60;99.90;;;;;;5028972;28;20053;-84
2022/12/20 09:03:29;;;;;;;5.68;4.15;;;9.60;99.90;;;;;;5013260;28;20509;-84
2022/12/20 09:05:54;;;;;;;4.80;4.10;;;9.60;99.90;;;;;;5026221;28;20380;-83
2022/12/20 09:08:20;;;;;;;6.65;4.05;;;9.60;99.90;;;;;;5016389;28;20045;-85
2022/12/20 09:10:45;;;;;;;4.85;3.95;;;9.60;99.90;;;;;;5025977;28;20061;-83
2022/12/20 09:13:11;;;;;;;5.53;4.38;;;9.60;99.90;;;;;;5025771;28;20044;-84
2022/12/20 09:15:37;;;;;;;5.93;3.92;;;9.60;99.90;;;;;;5024180;28;20053;-84
2022/12/20 09:18:03;;;;;;;4.25;3.70;;;9.60;99.90;;;;;;5028655;28;20080;-85
2022/12/20 09:20:29;;;;;;;6.45;4.35;;;9.60;99.90;;;;;;5029249;28;20411;-84
2022/12/20 09:22:55;;;;;;;4.40;3.97;;;9.60;99.90;;;;;;5027748;28;20053;-84
2022/12/20 09:25:20;;;;;;;5.47;4.13;;;9.60;99.90;;;;;;5017432;28;20049;-84
2022/12/20 09:27:46;;;;;;;5.78;3.80;;;9.70;99.90;;;;;;5024732;28;20045;-81
2022/12/20 09:30:11;;;;;;;6.68;3.83;;;9.60;99.90;;;;;;5009115;28;20123;-81
2022/12/20 09:32:37;;;;;;;4.68;3.67;;;9.70;99.90;;;;;;5009886;28;20054;-80
2022/12/20 09:35:04;;;;;;;4.97;3.92;;;9.60;99.90;;;;;;5010226;28;20133;-81
2022/12/20 09:37:31;;;;;;;5.38;3.60;;;9.70;99.90;;;;;;5029510;28;20099;-81
2022/12/20 09:39:57;;;;;;;5.78;3.80;;;10.00;99.90;;;;;;5028455;28;20049;-81
2022/12/20 09:42:25;;;;;;;6.43;4.32;;;9.70;99.90;;;;;;5029131;28;20520;-81
2022/12/20 09:44:53;;;;;;;5.38;3.83;;;9.70;99.90;;;;;;5027957;28;20049;-81
2022/12/20 09:47:23;;;;;;;6.10;3.50;;;9.70;99.90;;;;;;5019104;28;20038;-80
2022/12/20 09:49:53;;;;;;;6.30;5.32;;;9.70;99.90;;;;;;5016281;28;20056;-81
2022/12/20 09:52:51;;;;;;;5.80;4.60;;;9.70;99.90;;;;;;5008649;28;20056;-81
2022/12/20 09:55:34;;;;;;;6.93;4.18;;;9.80;99.90;;;;;;4990984;28;20108;-80
2022/12/20 09:58:02;;;;;;;;;;;9.80;99.90;;;;;;5010785;28;20060;-81
2022/12/20 10:00:29;;;;;;;4.57;3.58;;;9.80;99.90;;;;;;5027203;28;19921;-81
2022/12/20 10:02:55;;;;;;;4.45;4.00;;;9.70;99.90;;;;;;5012756;28;20060;-81
2022/12/20 10:05:32;;;;;;;5.55;3.80;;;9.70;99.90;;;;;;5027872;28;20053;-81
2022/12/20 10:08:14;;;;;;;5.90;5.00;;;9.70;99.90;;;;;;5010540;28;20061;-81
2022/12/20 10:11:13;;;;;;;4.80;4.40;;;9.70;99.90;;;;;;5028201;28;20048;-81
2022/12/20 10:14:12;;;;;;;4.72;4.10;;;9.70;99.90;;;;;;5013595;28;20060;-82
2022/12/20 10:16:46;;;;;;;5.70;3.80;;;9.70;99.90;;;;;;5007867;28;20484;-80
2022/12/20 10:19:50;;;;;;;6.45;4.10;;;9.60;99.90;;;;;;5022605;28;20124;-83
2022/12/20 10:22:22;;;;;;;5.32;3.88;;;9.60;99.90;;;;;;5017018;28;20037;-83
2022/12/20 10:25:01;;;;;;;4.55;3.85;;;9.60;99.90;;;;;;5008392;28;20151;-83
2022/12/20 10:27:26;;;;;;;5.18;3.60;;;9.60;99.90;;;;;;5007662;28;20046;-82
2022/12/20 10:29:52;;;;;;;4.60;4.00;;;9.60;99.90;;;;;;5007894;28;20063;-83
2022/12/20 10:32:21;;;;;;;6.05;4.10;;;9.60;99.90;;;;;;5008610;28;20050;-82
2022/12/20 10:35:10;;;;;;;6.43;4.68;;;9.60;99.90;;;;;;5008112;28;20065;-82
2022/12/20 10:37:37;;;;;;;5.20;3.83;;;9.60;99.90;;;;;;5020007;28;20053;-83
2022/12/20 10:40:03;;;;;;;7.05;4.65;;;9.60;99.90;;;;;;5000547;28;20056;-81
2022/12/20 10:42:38;;;;;;;6.20;4.45;;;9.60;99.90;;;;;;4990797;28;20060;-81
2022/12/20 10:45:39;;;;;;;7.80;4.32;;;9.60;99.90;;;;;;5025627;28;20052;-81
2022/12/20 10:48:22;;;;;;;5.68;3.85;;;9.60;99.90;;;;;;5026837;28;20049;-81
2022/12/20 10:51:08;;;;;;;6.65;4.75;;;9.60;99.90;;;;;;5012848;28;20538;-81
2022/12/20 10:53:34;;;;;;;6.10;4.60;;;9.50;99.90;;;;;;5023713;28;20049;-82
2022/12/20 10:56:20;;;;;;;5.68;4.22;;;9.60;99.90;;;;;;5007368;28;20431;-81
2022/12/20 10:59:16;;;;;;;5.18;4.45;;;9.60;99.90;;;;;;5007297;28;20053;-82
2022/12/20 11:01:47;;;;;;;6.65;5.22;;;9.60;99.90;;;;;;5014616;28;20058;-82
2022/12/20 11:04:27;;;;;;;7.68;5.03;;;9.60;99.90;;;;;;5012752;28;20045;-81
2022/12/20 11:06:53;;;;;;;5.45;4.40;;;9.70;99.90;;;;;;5025315;28;20529;-82
2022/12/20 11:09:28;;;;;;;6.32;4.53;;;9.70;99.90;;;;;;5014210;28;20111;-81
2022/12/20 11:12:03;;;;;;;6.78;4.28;;;9.70;99.90;;;;;;5013137;28;20045;-81
2022/12/20 11:14:30;;;;;;;5.63;4.43;;;9.70;99.90;;;;;;5021287;28;20045;-80
2022/12/20 11:16:59;;;;;;;6.40;4.57;;;9.70;99.90;;;;;;5025053;28;20120;-81
2022/12/20 11:19:43;;;;;;;6.85;4.63;;;9.70;99.90;;;;;;5018213;28;20045;-81
2022/12/20 11:22:56;;;;;;;5.80;4.78;;;9.70;99.90;;;;;;5021064;28;20049;-81
2022/12/20 11:25:43;;;;;;;7.00;4.97;;;9.70;99.90;;;;;;5030091;28;20054;-81
2022/12/20 11:28:44;;;;;;;5.80;4.05;;;9.70;99.90;;;;;;5011466;28;20131;-81
2022/12/20 11:31:26;;;;;;;6.97;4.45;;;9.70;99.90;;;;;;5022477;28;20060;-81
2022/12/20 11:34:02;;;;;;;5.20;4.07;;;10.10;99.90;;;;;;5025824;28;20054;-82
2022/12/20 11:36:49;;;;;;;7.65;4.47;;;9.80;99.90;;;;;;5022247;28;20042;-81
2022/12/20 11:39:47;;;;;;;5.90;4.05;;;9.80;99.90;;;;;;5007161;28;20052;-81
2022/12/20 11:42:37;;;;;;;5.35;4.40;;;9.80;99.90;;;;;;5021375;28;20049;-81
2022/12/20 11:45:40;;;;;;;5.63;4.50;;;9.80;99.90;;;;;;5022104;28;20080;-82
2022/12/20 11:48:33;;;;;;;6.10;4.22;;;9.90;99.90;;;;;;5026862;28;20809;-81
2022/12/20 11:51:22;;;;;;;6.50;4.13;;;9.90;99.90;;;;;;5016655;28;20046;-83
2022/12/20 11:54:09;;;;;;;5.65;4.10;;;9.90;99.90;;;;;;4996726;28;20057;-82
2022/12/20 11:56:38;;;;;;;6.78;4.57;;;9.90;99.90;;;;;;5026264;28;20042;-83
2022/12/20 11:59:34;;;;;;;7.22;5.18;;;9.90;99.90;;;;;;5026573;28;20099;-81
2022/12/20 12:02:16;;;;;;;5.43;4.35;;;9.90;99.90;;;;;;5026617;28;20041;-82
2022/12/20 12:04:57;;;;;;;9.48;6.45;;;9.90;99.90;;;;;;5018281;28;20038;-82
2022/12/20 12:07:32;;;;;;;7.85;5.47;;;10.30;99.90;;;;;;5017521;28;20122;-82
2022/12/20 12:10:08;;;;;;;7.47;5.53;;;9.90;99.90;;;;;;5006528;28;20396;-81
2022/12/20 12:12:42;;;;;;;5.72;5.10;;;9.80;99.90;;;;;;5008742;28;20054;-82
2022/12/20 12:15:14;;;;;;;7.10;6.22;;;9.80;99.90;;;;;;5007292;28;20046;-81
2022/12/20 12:17:46;;;;;;;;;;;9.80;99.90;;;;;;5026211;28;20055;-81
2022/12/20 12:20:43;;;;;;;8.35;4.78;;;9.80;99.90;;;;;;5025725;28;19978;-81
2022/12/20 12:23:34;;;;;;;5.40;4.72;;;9.80;99.90;;;;;;5010996;28;20415;-82
2022/12/20 12:26:05;;;;;;;5.97;4.82;;;9.80;99.90;;;;;;5006918;28;20058;-81
2022/12/20 12:28:32;;;;;;;4.90;4.35;;;9.70;99.90;;;;;;5025155;28;20278;-81
2022/12/20 12:31:14;;;;;;;9.73;4.85;;;9.80;99.90;;;;;;5020834;28;20092;-81
2022/12/20 12:33:47;;;;;;;6.55;4.60;;;9.80;99.90;;;;;;5009888;28;20076;-81
2022/12/20 12:36:43;;;;;;;5.95;4.63;;;9.80;99.90;;;;;;5009495;28;20065;-81
2022/12/20 12:39:37;;;;;;;6.05;4.55;;;9.80;99.90;;;;;;5024187;28;20092;-81
2022/12/20 12:42:27;;;;;;;6.30;4.95;;;9.80;99.90;;;;;;5008882;28;20052;-81
2022/12/20 12:45:02;;;;;;;5.47;4.30;;;9.80;99.90;;;;;;5012270;28;21660;-81
2022/12/20 12:47:33;;;;;;;6.15;4.90;;;9.80;99.90;;;;;;5030800;28;20053;-81
2022/12/20 12:50:01;;;;;;;7.70;5.15;;;9.80;99.90;;;;;;5012410;28;20091;-81
2022/12/20 12:52:49;;;;;;;5.75;4.60;;;9.80;99.90;;;;;;5019168;28;20076;-82
2022/12/20 12:55:44;;;;;;;6.38;4.90;;;9.80;99.90;;;;;;5009101;28;20427;-81
2022/12/20 12:58:21;;;;;;;7.38;4.93;;;9.80;99.90;;;;;;5009570;28;20061;-82
2022/12/20 13:01:08;;;;;;;8.60;5.90;;;9.80;99.90;;;;;;5011006;28;20046;-82
2022/12/20 13:03:38;;;;;;;5.90;5.30;;;10.20;99.90;;;;;;5020907;28;20045;-81
2022/12/20 13:06:22;;;;;;;6.85;5.45;;;9.80;99.90;;;;;;5030580;28;20092;-82
2022/12/20 13:09:09;;;;;;;7.78;5.47;;;9.80;99.90;;;;;;5028900;28;20053;-81
2022/12/20 13:11:40;;;;;;;7.45;6.00;;;9.80;99.90;;;;;;5027780;28;20167;-82
2022/12/20 13:14:23;;;;;;;7.82;5.55;;;9.80;99.90;;;;;;5030315;28;20085;-82
2022/12/20 13:16:50;;;;;;;8.07;5.70;;;9.80;99.90;;;;;;5028593;28;20042;-82
2022/12/20 13:19:25;;;;;;;9.32;5.57;;;9.80;99.90;;;;;;5019499;28;20034;-82
2022/12/20 13:21:58;;;;;;;6.53;5.80;;;9.80;99.90;;;;;;5008871;28;20084;-81
2022/12/20 13:24:49;;;;;;;10.60;6.35;;;9.70;99.90;;;;;;5009564;28;20574;-82
2022/12/20 13:27:35;;;;;;;8.23;5.53;;;9.80;99.90;;;;;;5008716;28;20049;-82